sensor_id;sensor_type;location;lat;lon;timestamp;pressure;altitude;pressure_sealevel;temperature;humidity
9421;BME280;4749;51.398;5.466;2023-02-28T00:01:34;102865.88;;;1.36;100.00
9421;BME280;4749;51.398;5.466;2023-02-28T00:04:02;102855.25;;;1.33;100.00
9421;BME280;4749;51.398;5.466;2023-02-28T00:06:35;102856.84;;;1.31;100.00
9421;BME280;4749;51.398;5.466;2023-02-28T00:09:02;102854.94;;;1.29;100.00
9421;BME280;4749;51.398;5.466;2023-02-28T00:11:37;102856.38;;;1.25;100.00
9421;BME280;4749;51.398;5.466;2023-02-28T00:14:05;102859.56;;;1.21;100.00
9421;BME280;4749;51.398;5.466;2023-02-28T00:16:35;102862.06;;;1.20;100.00
9421;BME280;4749;51.398;5.466;2023-02-28T00:19:03;102858.44;;;1.18;100.00
9421;BME280;4749;51.398;5.466;2023-02-28T00:21:30;102867.78;;;1.16;100.00
9421;BME280;4749;51.398;5.466;2023-02-28T00:23:58;102864.88;;;1.11;100.00
9421;BME280;4749;51.398;5.466;2023-02-28T00:26:35;102864.88;;;1.11;100.00
9421;BME280;4749;51.398;5.466;2023-02-28T00:29:19;102868.91;;;1.07;100.00
9421;BME280;4749;51.398;5.466;2023-02-28T00:31:55;102857.19;;;1.01;100.00
9421;BME280;4749;51.398;5.466;2023-02-28T00:34:38;102857.78;;;0.97;100.00
9421;BME280;4749;51.398;5.466;2023-02-28T00:40:37;102867.91;;;0.94;100.00
9421;BME280;4749;51.398;5.466;2023-02-28T00:46:03;102880.72;;;0.92;100.00
9421;BME280;4749;51.398;5.466;2023-02-28T00:48:35;102873.66;;;0.90;100.00
9421;BME280;4749;51.398;5.466;2023-02-28T00:51:04;102871.94;;;0.90;100.00
9421;BME280;4749;51.398;5.466;2023-02-28T00:53:34;102874.53;;;0.90;100.00
9421;BME280;4749;51.398;5.466;2023-02-28T00:56:16;102868.56;;;0.91;100.00
9421;BME280;4749;51.398;5.466;2023-02-28T01:01:58;102875.34;;;0.89;100.00
9421;BME280;4749;51.398;5.466;2023-02-28T01:04:38;102874.53;;;0.90;100.00
9421;BME280;4749;51.398;5.466;2023-02-28T01:07:31;102883.09;;;0.89;100.00
9421;BME280;4749;51.398;5.466;2023-02-28T01:10:10;102875.13;;;0.86;100.00
9421;BME280;4749;51.398;5.466;2023-02-28T01:12:39;102876.66;;;0.84;100.00
9421;BME280;4749;51.398;5.466;2023-02-28T01:15:09;102881.75;;;0.82;100.00
9421;BME280;4749;51.398;5.466;2023-02-28T01:17:37;102886.72;;;0.79;100.00
9421;BME280;4749;51.398;5.466;2023-02-28T01:20:09;102885.59;;;0.76;100.00
9421;BME280;4749;51.398;5.466;2023-02-28T01:22:55;102876.69;;;0.72;100.00
9421;BME280;4749;51.398;5.466;2023-02-28T01:28:11;102877.91;;;0.66;100.00
9421;BME280;4749;51.398;5.466;2023-02-28T01:30:38;102875.19;;;0.64;100.00
9421;BME280;4749;51.398;5.466;2023-02-28T01:33:06;102886.44;;;0.65;100.00
9421;BME280;4749;51.398;5.466;2023-02-28T01:35:35;102885.44;;;0.63;100.00
9421;BME280;4749;51.398;5.466;2023-02-28T01:38:03;102880.16;;;0.61;100.00
9421;BME280;4749;51.398;5.466;2023-02-28T01:40:55;102883.75;;;0.63;100.00
9421;BME280;4749;51.398;5.466;2023-02-28T01:46:45;102876.00;;;0.63;100.00
9421;BME280;4749;51.398;5.466;2023-02-28T01:49:15;102870.81;;;0.63;100.00
9421;BME280;4749;51.398;5.466;2023-02-28T01:52:08;102874.09;;;0.61;100.00
9421;BME280;4749;51.398;5.466;2023-02-28T01:55:01;102873.03;;;0.59;100.00
9421;BME280;4749;51.398;5.466;2023-02-28T01:57:52;102870.59;;;0.60;100.00
9421;BME280;4749;51.398;5.466;2023-02-28T02:00:45;102862.69;;;0.59;100.00
9421;BME280;4749;51.398;5.466;2023-02-28T02:03:48;102862.56;;;0.57;100.00
9421;BME280;4749;51.398;5.466;2023-02-28T02:06:42;102860.66;;;0.54;100.00
9421;BME280;4749;51.398;5.466;2023-02-28T02:09:11;102850.31;;;0.54;100.00
9421;BME280;4749;51.398;5.466;2023-02-28T02:11:42;102851.09;;;0.53;100.00
9421;BME280;4749;51.398;5.466;2023-02-28T02:27:12;102833.78;;;0.52;100.00
9421;BME280;4749;51.398;5.466;2023-02-28T02:35:27;102834.00;;;0.55;100.00
9421;BME280;4749;51.398;5.466;2023-02-28T02:38:05;102825.53;;;0.58;100.00
9421;BME280;4749;51.398;5.466;2023-02-28T02:43:45;102823.41;;;0.52;100.00
9421;BME280;4749;51.398;5.466;2023-02-28T02:46:27;102831.06;;;0.51;100.00
9421;BME280;4749;51.398;5.466;2023-02-28T02:48:57;102824.75;;;0.47;100.00
9421;BME280;4749;51.398;5.466;2023-02-28T02:51:34;102830.81;;;0.48;100.00
9421;BME280;4749;51.398;5.466;2023-02-28T02:54:15;102833.31;;;0.46;100.00
9421;BME280;4749;51.398;5.466;2023-02-28T02:56:48;102840.16;;;0.46;100.00
9421;BME280;4749;51.398;5.466;2023-02-28T02:59:21;102841.84;;;0.45;100.00
9421;BME280;4749;51.398;5.466;2023-02-28T03:01:57;102836.47;;;0.42;100.00
9421;BME280;4749;51.398;5.466;2023-02-28T03:04:36;102840.72;;;0.42;100.00
9421;BME280;4749;51.398;5.466;2023-02-28T03:07:06;102840.72;;;0.42;100.00
9421;BME280;4749;51.398;5.466;2023-02-28T03:09:54;102846.66;;;0.41;100.00
9421;BME280;4749;51.398;5.466;2023-02-28T03:12:40;102845.78;;;0.40;100.00
9421;BME280;4749;51.398;5.466;2023-02-28T03:15:28;102843.19;;;0.40;100.00
9421;BME280;4749;51.398;5.466;2023-02-28T03:18:13;102842.66;;;0.44;100.00
9421;BME280;4749;51.398;5.466;2023-02-28T03:21:15;102843.66;;;0.46;100.00
9421;BME280;4749;51.398;5.466;2023-02-28T03:26:36;102839.75;;;0.51;100.00
9421;BME280;4749;51.398;5.466;2023-02-28T03:29:46;102838.38;;;0.56;100.00
9421;BME280;4749;51.398;5.466;2023-02-28T03:33:21;102840.66;;;0.64;100.00
9421;BME280;4749;51.398;5.466;2023-02-28T03:43:07;102836.94;;;0.72;100.00
9421;BME280;4749;51.398;5.466;2023-02-28T03:45:48;102844.03;;;0.74;100.00
9421;BME280;4749;51.398;5.466;2023-02-28T03:48:36;102843.47;;;0.78;100.00
9421;BME280;4749;51.398;5.466;2023-02-28T03:51:16;102843.00;;;0.84;100.00
9421;BME280;4749;51.398;5.466;2023-02-28T03:54:08;102833.69;;;0.86;100.00
9421;BME280;4749;51.398;5.466;2023-02-28T03:56:50;102841.66;;;0.89;100.00
9421;BME280;4749;51.398;5.466;2023-02-28T03:59:29;102840.31;;;0.94;100.00
9421;BME280;4749;51.398;5.466;2023-02-28T04:01:58;102836.03;;;0.95;100.00
9421;BME280;4749;51.398;5.466;2023-02-28T04:04:26;102850.22;;;1.00;100.00
9421;BME280;4749;51.398;5.466;2023-02-28T04:07:07;102850.56;;;1.04;100.00
9421;BME280;4749;51.398;5.466;2023-02-28T04:09:35;102843.69;;;1.05;100.00
9421;BME280;4749;51.398;5.466;2023-02-28T04:12:02;102849.66;;;1.04;100.00
9421;BME280;4749;51.398;5.466;2023-02-28T04:14:30;102843.91;;;1.08;100.00
9421;BME280;4749;51.398;5.466;2023-02-28T04:16:57;102836.47;;;1.12;100.00
9421;BME280;4749;51.398;5.466;2023-02-28T04:19:24;102836.94;;;1.19;100.00
9421;BME280;4749;51.398;5.466;2023-02-28T04:21:53;102840.75;;;1.24;100.00
9421;BME280;4749;51.398;5.466;2023-02-28T04:24:24;102842.78;;;1.28;100.00
9421;BME280;4749;51.398;5.466;2023-02-28T04:26:55;102839.28;;;1.27;100.00
9421;BME280;4749;51.398;5.466;2023-02-28T04:29:30;102844.88;;;1.33;100.00
9421;BME280;4749;51.398;5.466;2023-02-28T04:31:59;102850.66;;;1.29;100.00
9421;BME280;4749;51.398;5.466;2023-02-28T04:34:29;102845.56;;;1.31;100.00
9421;BME280;4749;51.398;5.466;2023-02-28T04:36:57;102851.75;;;1.33;100.00
9421;BME280;4749;51.398;5.466;2023-02-28T04:39:39;102843.34;;;1.35;100.00
9421;BME280;4749;51.398;5.466;2023-02-28T04:42:06;102846.13;;;1.38;100.00
9421;BME280;4749;51.398;5.466;2023-02-28T04:44:34;102854.91;;;1.40;100.00
9421;BME280;4749;51.398;5.466;2023-02-28T04:47:01;102849.81;;;1.42;100.00
9421;BME280;4749;51.398;5.466;2023-02-28T04:49:28;102846.88;;;1.49;100.00
9421;BME280;4749;51.398;5.466;2023-02-28T04:51:55;102851.28;;;1.50;100.00
9421;BME280;4749;51.398;5.466;2023-02-28T04:54:23;102854.75;;;1.51;100.00
9421;BME280;4749;51.398;5.466;2023-02-28T04:56:50;102853.06;;;1.51;100.00
9421;BME280;4749;51.398;5.466;2023-02-28T04:59:18;102857.59;;;1.54;100.00
9421;BME280;4749;51.398;5.466;2023-02-28T05:01:47;102851.50;;;1.53;100.00
9421;BME280;4749;51.398;5.466;2023-02-28T05:04:15;102856.81;;;1.55;100.00
9421;BME280;4749;51.398;5.466;2023-02-28T05:06:43;102851.63;;;1.55;100.00
9421;BME280;4749;51.398;5.466;2023-02-28T05:09:12;102850.94;;;1.57;100.00
9421;BME280;4749;51.398;5.466;2023-02-28T05:11:39;102855.84;;;1.66;100.00
9421;BME280;4749;51.398;5.466;2023-02-28T05:14:13;102858.69;;;1.69;100.00
9421;BME280;4749;51.398;5.466;2023-02-28T05:16:41;102858.78;;;1.71;100.00
9421;BME280;4749;51.398;5.466;2023-02-28T05:19:08;102855.31;;;1.70;100.00
9421;BME280;4749;51.398;5.466;2023-02-28T05:21:51;102860.69;;;1.73;100.00
9421;BME280;4749;51.398;5.466;2023-02-28T05:24:19;102869.38;;;1.74;100.00
9421;BME280;4749;51.398;5.466;2023-02-28T05:26:52;102870.28;;;1.74;100.00
9421;BME280;4749;51.398;5.466;2023-02-28T05:29:20;102863.38;;;1.75;100.00
9421;BME280;4749;51.398;5.466;2023-02-28T05:31:48;102869.47;;;1.75;100.00
9421;BME280;4749;51.398;5.466;2023-02-28T05:34:18;102870.28;;;1.74;100.00
9421;BME280;4749;51.398;5.466;2023-02-28T05:36:45;102875.56;;;1.76;100.00
9421;BME280;4749;51.398;5.466;2023-02-28T05:39:12;102867.00;;;1.77;100.00
9421;BME280;4749;51.398;5.466;2023-02-28T05:41:43;102879.97;;;1.77;100.00
9421;BME280;4749;51.398;5.466;2023-02-28T05:44:11;102872.97;;;1.76;100.00
9421;BME280;4749;51.398;5.466;2023-02-28T05:46:39;102874.66;;;1.75;100.00
9421;BME280;4749;51.398;5.466;2023-02-28T05:49:06;102873.09;;;1.77;100.00
9421;BME280;4749;51.398;5.466;2023-02-28T05:51:34;102878.28;;;1.77;100.00
9421;BME280;4749;51.398;5.466;2023-02-28T05:54:03;102877.59;;;1.80;100.00
9421;BME280;4749;51.398;5.466;2023-02-28T05:56:31;102868.81;;;1.78;100.00
9421;BME280;4749;51.398;5.466;2023-02-28T05:58:58;102880.88;;;1.77;100.00
9421;BME280;4749;51.398;5.466;2023-02-28T06:01:41;102879.06;;;1.76;100.00
9421;BME280;4749;51.398;5.466;2023-02-28T06:04:10;102872.88;;;1.74;100.00
9421;BME280;4749;51.398;5.466;2023-02-28T06:06:55;102872.75;;;1.73;100.00
9421;BME280;4749;51.398;5.466;2023-02-28T06:09:24;102878.63;;;1.70;100.00
9421;BME280;4749;51.398;5.466;2023-02-28T06:11:52;102881.00;;;1.67;100.00
9421;BME280;4749;51.398;5.466;2023-02-28T06:14:20;102880.88;;;1.65;100.00
9421;BME280;4749;51.398;5.466;2023-02-28T06:16:48;102880.00;;;1.65;100.00
9421;BME280;4749;51.398;5.466;2023-02-28T06:19:16;102884.38;;;1.66;100.00
9421;BME280;4749;51.398;5.466;2023-02-28T06:21:43;102886.19;;;1.67;100.00
9421;BME280;4749;51.398;5.466;2023-02-28T06:24:10;102888.78;;;1.67;100.00
9421;BME280;4749;51.398;5.466;2023-02-28T06:26:38;102890.56;;;1.68;100.00
9421;BME280;4749;51.398;5.466;2023-02-28T06:29:05;102888.13;;;1.69;100.00
9421;BME280;4749;51.398;5.466;2023-02-28T06:31:32;102890.91;;;1.73;100.00
9421;BME280;4749;51.398;5.466;2023-02-28T06:34:00;102904.22;;;1.77;100.00
9421;BME280;4749;51.398;5.466;2023-02-28T06:36:27;102898.34;;;1.80;100.00
9421;BME280;4749;51.398;5.466;2023-02-28T06:38:57;102896.75;;;1.82;100.00
9421;BME280;4749;51.398;5.466;2023-02-28T06:41:26;102902.13;;;1.85;100.00
9421;BME280;4749;51.398;5.466;2023-02-28T06:43:58;102902.47;;;1.89;100.00
9421;BME280;4749;51.398;5.466;2023-02-28T06:46:25;102894.25;;;1.95;100.00
9421;BME280;4749;51.398;5.466;2023-02-28T06:49:08;102909.44;;;2.02;100.00
9421;BME280;4749;51.398;5.466;2023-02-28T06:51:50;102908.06;;;2.07;100.00
9421;BME280;4749;51.398;5.466;2023-02-28T06:54:21;102908.28;;;2.10;100.00
9421;BME280;4749;51.398;5.466;2023-02-28T06:56:52;102911.19;;;2.15;100.00
9421;BME280;4749;51.398;5.466;2023-02-28T06:59:21;102913.09;;;2.17;100.00
9421;BME280;4749;51.398;5.466;2023-02-28T07:01:51;102914.69;;;2.15;100.00
9421;BME280;4749;51.398;5.466;2023-02-28T07:04:25;102917.47;;;2.18;100.00
9421;BME280;4749;51.398;5.466;2023-02-28T07:07:15;102919.41;;;2.21;100.00
9421;BME280;4749;51.398;5.466;2023-02-28T07:09:42;102922.19;;;2.24;100.00
9421;BME280;4749;51.398;5.466;2023-02-28T07:12:15;102925.13;;;2.29;100.00
9421;BME280;4749;51.398;5.466;2023-02-28T07:15:04;102932.22;;;2.31;100.00
9421;BME280;4749;51.398;5.466;2023-02-28T07:17:56;102943.44;;;2.43;100.00
9421;BME280;4749;51.398;5.466;2023-02-28T07:21:37;102941.00;;;2.58;100.00
9421;BME280;4749;51.398;5.466;2023-02-28T07:24:33;102946.34;;;2.73;100.00
9421;BME280;4749;51.398;5.466;2023-02-28T07:28:40;102942.56;;;2.94;100.00
9421;BME280;4749;51.398;5.466;2023-02-28T07:31:08;102941.91;;;3.10;100.00
9421;BME280;4749;51.398;5.466;2023-02-28T07:34:08;102951.53;;;3.24;100.00
9421;BME280;4749;51.398;5.466;2023-02-28T07:36:35;102946.53;;;3.27;100.00
9421;BME280;4749;51.398;5.466;2023-02-28T07:39:05;102942.63;;;3.34;100.00
9421;BME280;4749;51.398;5.466;2023-02-28T07:41:33;102939.44;;;3.38;100.00
9421;BME280;4749;51.398;5.466;2023-02-28T07:44:00;102942.84;;;3.37;100.00
9421;BME280;4749;51.398;5.466;2023-02-28T07:46:31;102937.25;;;3.31;100.00
9421;BME280;4749;51.398;5.466;2023-02-28T07:49:06;102952.75;;;3.29;100.00
9421;BME280;4749;51.398;5.466;2023-02-28T07:51:42;102953.53;;;3.28;100.00
9421;BME280;4749;51.398;5.466;2023-02-28T07:54:10;102953.13;;;3.35;100.00
9421;BME280;4749;51.398;5.466;2023-02-28T07:56:37;102964.13;;;3.45;100.00
9421;BME280;4749;51.398;5.466;2023-02-28T07:59:04;102956.81;;;3.52;100.00
9421;BME280;4749;51.398;5.466;2023-02-28T08:01:32;102972.34;;;3.64;100.00
9421;BME280;4749;51.398;5.466;2023-02-28T08:03:59;102968.13;;;3.79;100.00
9421;BME280;4749;51.398;5.466;2023-02-28T08:06:27;102973.09;;;3.89;100.00
9421;BME280;4749;51.398;5.466;2023-02-28T08:08:54;102965.56;;;3.94;100.00
9421;BME280;4749;51.398;5.466;2023-02-28T08:11:24;102967.38;;;3.95;100.00
9421;BME280;4749;51.398;5.466;2023-02-28T08:13:54;102979.41;;;3.93;100.00
9421;BME280;4749;51.398;5.466;2023-02-28T08:16:23;102976.53;;;3.88;100.00
9421;BME280;4749;51.398;5.466;2023-02-28T08:18:52;102978.09;;;3.86;100.00
9421;BME280;4749;51.398;5.466;2023-02-28T08:21:23;102972.78;;;3.85;100.00
9421;BME280;4749;51.398;5.466;2023-02-28T08:23:53;102971.81;;;3.83;100.00
9421;BME280;4749;51.398;5.466;2023-02-28T08:26:22;102968.22;;;3.81;100.00
9421;BME280;4749;51.398;5.466;2023-02-28T08:28:51;102963.91;;;3.81;100.00
9421;BME280;4749;51.398;5.466;2023-02-28T08:31:19;102977.09;;;3.84;100.00
9421;BME280;4749;51.398;5.466;2023-02-28T08:33:50;102972.13;;;3.87;100.00
9421;BME280;4749;51.398;5.466;2023-02-28T08:36:20;102967.91;;;3.89;100.00
9421;BME280;4749;51.398;5.466;2023-02-28T08:38:47;102968.00;;;3.91;100.00
9421;BME280;4749;51.398;5.466;2023-02-28T08:41:16;102963.09;;;3.95;100.00
9421;BME280;4749;51.398;5.466;2023-02-28T08:43:44;102975.47;;;4.00;100.00
9421;BME280;4749;51.398;5.466;2023-02-28T08:46:13;102971.25;;;4.02;100.00
9421;BME280;4749;51.398;5.466;2023-02-28T08:48:41;102974.16;;;4.06;100.00
9421;BME280;4749;51.398;5.466;2023-02-28T08:51:15;102973.47;;;4.09;100.00
9421;BME280;4749;51.398;5.466;2023-02-28T08:53:45;102967.53;;;4.11;100.00
9421;BME280;4749;51.398;5.466;2023-02-28T08:56:14;102960.03;;;4.16;100.00
9421;BME280;4749;51.398;5.466;2023-02-28T08:58:44;102961.22;;;4.21;100.00
9421;BME280;4749;51.398;5.466;2023-02-28T09:01:17;102966.88;;;4.29;100.00
9421;BME280;4749;51.398;5.466;2023-02-28T09:03:46;102967.91;;;4.31;100.00
9421;BME280;4749;51.398;5.466;2023-02-28T09:06:16;102974.19;;;4.34;100.00
9421;BME280;4749;51.398;5.466;2023-02-28T09:08:44;102969.19;;;4.37;100.00
9421;BME280;4749;51.398;5.466;2023-02-28T09:11:11;102971.97;;;4.40;100.00
9421;BME280;4749;51.398;5.466;2023-02-28T09:13:41;102968.72;;;4.44;100.00
9421;BME280;4749;51.398;5.466;2023-02-28T09:16:13;102980.44;;;4.51;100.00
9421;BME280;4749;51.398;5.466;2023-02-28T09:18:41;102971.88;;;4.53;100.00
9421;BME280;4749;51.398;5.466;2023-02-28T09:21:12;102968.59;;;4.56;100.00
9421;BME280;4749;51.398;5.466;2023-02-28T09:23:43;102979.19;;;4.59;98.62
9421;BME280;4749;51.398;5.466;2023-02-28T09:26:17;102973.47;;;4.65;97.40
9421;BME280;4749;51.398;5.466;2023-02-28T09:28:44;102968.41;;;4.68;93.17
9421;BME280;4749;51.398;5.466;2023-02-28T09:31:19;102968.81;;;4.74;91.54
9421;BME280;4749;51.398;5.466;2023-02-28T09:33:53;102974.19;;;4.77;89.48
9421;BME280;4749;51.398;5.466;2023-02-28T09:36:23;102972.69;;;4.80;88.99
9421;BME280;4749;51.398;5.466;2023-02-28T09:39:00;102970.25;;;4.84;87.85
9421;BME280;4749;51.398;5.466;2023-02-28T09:41:43;102967.03;;;4.88;85.73
9421;BME280;4749;51.398;5.466;2023-02-28T09:44:38;102962.97;;;4.93;84.60
9421;BME280;4749;51.398;5.466;2023-02-28T09:52:55;102967.38;;;5.08;81.46
9421;BME280;4749;51.398;5.466;2023-02-28T09:55:36;102957.03;;;5.10;78.88
9421;BME280;4749;51.398;5.466;2023-02-28T09:58:33;102974.94;;;5.19;78.13
9421;BME280;4749;51.398;5.466;2023-02-28T10:01:18;102968.28;;;5.24;77.23
9421;BME280;4749;51.398;5.466;2023-02-28T10:10:30;102953.41;;;5.37;74.69
9421;BME280;4749;51.398;5.466;2023-02-28T10:13:04;102959.88;;;5.44;74.39
9421;BME280;4749;51.398;5.466;2023-02-28T10:15:32;102947.13;;;5.49;73.89
9421;BME280;4749;51.398;5.466;2023-02-28T10:18:06;102952.56;;;5.53;72.81
9421;BME280;4749;51.398;5.466;2023-02-28T10:20:41;102945.84;;;5.57;72.38
9421;BME280;4749;51.398;5.466;2023-02-28T10:23:22;102935.56;;;5.60;72.71
9421;BME280;4749;51.398;5.466;2023-02-28T10:26:00;102937.44;;;5.62;72.00
9421;BME280;4749;51.398;5.466;2023-02-28T10:28:29;102940.22;;;5.65;71.44
9421;BME280;4749;51.398;5.466;2023-02-28T10:30:58;102944.72;;;5.68;71.71
9421;BME280;4749;51.398;5.466;2023-02-28T10:33:34;102938.06;;;5.73;71.45
9421;BME280;4749;51.398;5.466;2023-02-28T10:36:03;102924.19;;;5.74;71.38
9421;BME280;4749;51.398;5.466;2023-02-28T10:38:38;102920.09;;;5.79;69.79
9421;BME280;4749;51.398;5.466;2023-02-28T10:41:30;102939.53;;;5.84;68.69
9421;BME280;4749;51.398;5.466;2023-02-28T10:44:21;102936.19;;;5.87;69.12
9421;BME280;4749;51.398;5.466;2023-02-28T10:46:49;102929.63;;;5.93;69.55
9421;BME280;4749;51.398;5.466;2023-02-28T10:49:29;102945.72;;;6.01;68.92
9421;BME280;4749;51.398;5.466;2023-02-28T10:52:00;102939.03;;;6.06;69.14
9421;BME280;4749;51.398;5.466;2023-02-28T10:54:34;102931.38;;;6.09;68.59
9421;BME280;4749;51.398;5.466;2023-02-28T10:57:17;102922.88;;;6.13;67.58
9421;BME280;4749;51.398;5.466;2023-02-28T10:59:45;102917.63;;;6.13;68.16
9421;BME280;4749;51.398;5.466;2023-02-28T11:02:37;102928.34;;;6.18;67.67
9421;BME280;4749;51.398;5.466;2023-02-28T11:05:33;102919.84;;;6.22;67.30
9421;BME280;4749;51.398;5.466;2023-02-28T11:08:10;102918.31;;;6.26;67.69
9421;BME280;4749;51.398;5.466;2023-02-28T11:10:39;102923.69;;;6.29;66.99
9421;BME280;4749;51.398;5.466;2023-02-28T11:13:20;102921.06;;;6.29;66.28
9421;BME280;4749;51.398;5.466;2023-02-28T11:15:58;102919.22;;;6.26;65.84
9421;BME280;4749;51.398;5.466;2023-02-28T11:21:01;102936.94;;;6.32;65.74
9421;BME280;4749;51.398;5.466;2023-02-28T11:23:35;102926.47;;;6.32;65.54
9421;BME280;4749;51.398;5.466;2023-02-28T11:26:04;102925.75;;;6.34;65.25
9421;BME280;4749;51.398;5.466;2023-02-28T11:28:37;102910.13;;;6.36;64.89
9421;BME280;4749;51.398;5.466;2023-02-28T11:33:54;102902.56;;;6.40;64.77
9421;BME280;4749;51.398;5.466;2023-02-28T11:36:30;102900.00;;;6.42;65.46
9421;BME280;4749;51.398;5.466;2023-02-28T11:39:10;102902.97;;;6.48;64.87
9421;BME280;4749;51.398;5.466;2023-02-28T11:42:02;102905.78;;;6.53;64.89
9421;BME280;4749;51.398;5.466;2023-02-28T11:47:04;102893.06;;;6.59;64.57
9421;BME280;4749;51.398;5.466;2023-02-28T11:50:01;102892.47;;;6.64;64.51
9421;BME280;4749;51.398;5.466;2023-02-28T11:52:53;102902.00;;;6.64;64.50
9421;BME280;4749;51.398;5.466;2023-02-28T11:55:28;102893.25;;;6.63;64.03
9421;BME280;4749;51.398;5.466;2023-02-28T12:10:26;102892.13;;;6.74;63.48
9421;BME280;4749;51.398;5.466;2023-02-28T12:19:22;102869.91;;;6.66;63.55
9421;BME280;4749;51.398;5.466;2023-02-28T12:22:20;102867.75;;;6.75;64.13
9421;BME280;4749;51.398;5.466;2023-02-28T12:27:43;102862.16;;;6.86;64.59
9421;BME280;4749;51.398;5.466;2023-02-28T12:30:27;102860.50;;;6.88;64.20
9421;BME280;4749;51.398;5.466;2023-02-28T12:33:09;102863.38;;;6.92;64.21
9421;BME280;4749;51.398;5.466;2023-02-28T12:35:56;102862.47;;;6.92;63.37
9421;BME280;4749;51.398;5.466;2023-02-28T12:38:41;102875.38;;;6.89;62.29
9421;BME280;4749;51.398;5.466;2023-02-28T12:41:41;102857.91;;;6.88;61.79
9421;BME280;4749;51.398;5.466;2023-02-28T12:44:19;102856.13;;;6.87;62.96
9421;BME280;4749;51.398;5.466;2023-02-28T12:46:59;102840.72;;;6.93;63.15
9421;BME280;4749;51.398;5.466;2023-02-28T12:52:41;102846.41;;;7.02;63.04
9421;BME280;4749;51.398;5.466;2023-02-28T12:55:31;102838.50;;;7.00;62.44
9421;BME280;4749;51.398;5.466;2023-02-28T12:59:00;102834.91;;;6.98;62.52
9421;BME280;4749;51.398;5.466;2023-02-28T13:09:57;102830.72;;;7.02;62.46
9421;BME280;4749;51.398;5.466;2023-02-28T13:12:25;102817.06;;;7.08;62.44
9421;BME280;4749;51.398;5.466;2023-02-28T13:15:25;102821.53;;;7.10;62.21
9421;BME280;4749;51.398;5.466;2023-02-28T13:18:03;102823.31;;;7.11;62.40
9421;BME280;4749;51.398;5.466;2023-02-28T13:20:37;102822.44;;;7.11;62.55
9421;BME280;4749;51.398;5.466;2023-02-28T13:26:19;102809.66;;;7.17;63.01
9421;BME280;4749;51.398;5.466;2023-02-28T13:31:24;102807.22;;;7.21;62.63
9421;BME280;4749;51.398;5.466;2023-02-28T13:36:30;102802.91;;;7.22;62.54
9421;BME280;4749;51.398;5.466;2023-02-28T13:39:03;102807.22;;;7.21;62.09
9421;BME280;4749;51.398;5.466;2023-02-28T13:41:50;102804.78;;;7.24;62.27
9421;BME280;4749;51.398;5.466;2023-02-28T13:44:23;102795.16;;;7.23;62.15
9421;BME280;4749;51.398;5.466;2023-02-28T13:52:23;102792.72;;;7.28;62.23
9421;BME280;4749;51.398;5.466;2023-02-28T14:06:54;102791.69;;;7.24;62.34
9421;BME280;4749;51.398;5.466;2023-02-28T14:11:57;102786.31;;;7.21;62.11
9421;BME280;4749;51.398;5.466;2023-02-28T14:17:06;102786.03;;;7.15;61.49
9421;BME280;4749;51.398;5.466;2023-02-28T14:19:37;102791.34;;;7.17;61.79
9421;BME280;4749;51.398;5.466;2023-02-28T14:33:13;102783.25;;;7.12;61.14
9421;BME280;4749;51.398;5.466;2023-02-28T14:39:26;102772.59;;;7.08;61.72
9421;BME280;4749;51.398;5.466;2023-02-28T14:41:58;102773.47;;;7.08;61.14
9421;BME280;4749;51.398;5.466;2023-02-28T14:44:30;102776.09;;;7.08;61.36
9421;BME280;4749;51.398;5.466;2023-02-28T14:47:02;102762.03;;;7.06;61.35
9421;BME280;4749;51.398;5.466;2023-02-28T14:49:41;102767.34;;;7.08;61.71
9421;BME280;4749;51.398;5.466;2023-02-28T14:54:38;102759.66;;;7.11;62.17
9421;BME280;4749;51.398;5.466;2023-02-28T14:57:06;102770.88;;;7.08;61.72
9421;BME280;4749;51.398;5.466;2023-02-28T14:59:57;102780.44;;;7.08;61.24
9421;BME280;4749;51.398;5.466;2023-02-28T15:02:26;102771.38;;;7.01;61.14
9421;BME280;4749;51.398;5.466;2023-02-28T15:04:59;102769.38;;;6.95;61.26
9421;BME280;4749;51.398;5.466;2023-02-28T15:07:27;102754.44;;;6.93;61.72
9421;BME280;4749;51.398;5.466;2023-02-28T15:10:23;102755.34;;;6.93;61.25
9421;BME280;4749;51.398;5.466;2023-02-28T15:13:05;102761.38;;;6.92;61.73
9421;BME280;4749;51.398;5.466;2023-02-28T15:16:01;102767.50;;;6.93;61.06
9421;BME280;4749;51.398;5.466;2023-02-28T15:18:55;102770.97;;;6.92;61.31
9421;BME280;4749;51.398;5.466;2023-02-28T15:21:38;102768.34;;;6.92;61.30
9421;BME280;4749;51.398;5.466;2023-02-28T15:24:15;102768.16;;;6.89;61.13
9421;BME280;4749;51.398;5.466;2023-02-28T15:26:57;102763.63;;;6.85;61.30
9421;BME280;4749;51.398;5.466;2023-02-28T15:29:29;102763.50;;;6.82;61.74
9421;BME280;4749;51.398;5.466;2023-02-28T15:32:06;102766.91;;;6.81;61.29
9421;BME280;4749;51.398;5.466;2023-02-28T15:34:40;102765.94;;;6.78;61.96
9421;BME280;4749;51.398;5.466;2023-02-28T15:37:45;102769.38;;;6.77;61.58
9421;BME280;4749;51.398;5.466;2023-02-28T15:40:37;102765.81;;;6.75;61.82
9421;BME280;4749;51.398;5.466;2023-02-28T15:45:52;102756.81;;;6.70;61.97
9421;BME280;4749;51.398;5.466;2023-02-28T15:48:24;102761.09;;;6.68;62.09
9421;BME280;4749;51.398;5.466;2023-02-28T15:50:57;102754.97;;;6.68;62.08
9421;BME280;4749;51.398;5.466;2023-02-28T15:53:32;102758.25;;;6.64;62.27
9421;BME280;4749;51.398;5.466;2023-02-28T15:56:05;102763.56;;;6.65;62.17
9421;BME280;4749;51.398;5.466;2023-02-28T15:58:35;102758.16;;;6.62;62.16
9421;BME280;4749;51.398;5.466;2023-02-28T16:01:28;102764.16;;;6.60;61.72
9421;BME280;4749;51.398;5.466;2023-02-28T16:04:05;102764.66;;;6.53;62.14
9421;BME280;4749;51.398;5.466;2023-02-28T16:06:46;102764.53;;;6.49;61.96
9421;BME280;4749;51.398;5.466;2023-02-28T16:09:27;102759.94;;;6.45;62.46
9421;BME280;4749;51.398;5.466;2023-02-28T16:11:56;102768.53;;;6.43;62.35
9421;BME280;4749;51.398;5.466;2023-02-28T16:14:27;102764.91;;;6.39;62.79
9421;BME280;4749;51.398;5.466;2023-02-28T16:17:04;102759.41;;;6.35;62.68
9421;BME280;4749;51.398;5.466;2023-02-28T16:19:32;102762.72;;;6.31;62.67
9421;BME280;4749;51.398;5.466;2023-02-28T16:22:01;102761.13;;;6.34;62.82
9421;BME280;4749;51.398;5.466;2023-02-28T16:24:28;102751.91;;;6.41;63.30
9421;BME280;4749;51.398;5.466;2023-02-28T16:26:56;102758.34;;;6.47;63.57
9421;BME280;4749;51.398;5.466;2023-02-28T16:29:31;102754.13;;;6.51;63.83
9421;BME280;4749;51.398;5.466;2023-02-28T16:31:59;102748.03;;;6.51;63.91